createdAt,value
2023-04-02T00:00:19.765Z,2.90
2023-04-02T00:03:03.806Z,3.10
2023-04-02T00:05:52.367Z,2.70
2023-04-02T00:08:26.899Z,2.60
2023-04-02T00:10:59.708Z,3.00
2023-04-02T00:13:36.465Z,2.70
2023-04-02T00:16:09.566Z,2.30
2023-04-02T00:18:45.638Z,2.40
2023-04-02T00:21:22.347Z,3.00
2023-04-02T00:23:54.882Z,3.50
2023-04-02T00:26:34.093Z,2.80
2023-04-02T00:29:07.306Z,3.20
2023-04-02T00:31:43.258Z,3.10
2023-04-02T00:34:19.366Z,3.10
2023-04-02T00:36:52.022Z,2.80
2023-04-02T00:39:27.320Z,3.70
2023-04-02T00:42:05.766Z,3.30
2023-04-02T00:44:42.769Z,3.10
2023-04-02T00:47:20.415Z,3.40
2023-04-02T00:49:55.744Z,3.50
2023-04-02T00:52:30.661Z,3.50
2023-04-02T00:55:07.831Z,3.70
2023-04-02T00:57:38.422Z,3.50
2023-04-02T01:00:23.012Z,3.50
2023-04-02T01:03:29.774Z,3.30
2023-04-02T01:06:04.960Z,3.50
2023-04-02T01:08:53.972Z,3.70
2023-04-02T01:11:37.997Z,3.50
2023-04-02T01:14:20.126Z,3.60
2023-04-02T01:16:56.312Z,3.40
2023-04-02T01:19:53.945Z,4.00
2023-04-02T01:22:35.209Z,3.80
2023-04-02T01:25:08.495Z,3.90
2023-04-02T01:27:46.880Z,4.60
2023-04-02T01:30:18.304Z,3.90
2023-04-02T01:32:49.019Z,4.30
2023-04-02T01:35:20.501Z,4.20
2023-04-02T01:40:40.371Z,4.50
2023-04-02T01:43:21.145Z,3.80
2023-04-02T01:45:52.189Z,4.60
2023-04-02T01:48:27.565Z,4.60
2023-04-02T01:51:00.366Z,4.10
2023-04-02T01:53:33.324Z,4.40
2023-04-02T01:56:05.019Z,4.40
2023-04-02T01:58:35.769Z,4.10
2023-04-02T02:01:12.704Z,4.00
2023-04-02T02:03:45.965Z,4.20
2023-04-02T02:06:19.383Z,4.20
2023-04-02T02:08:52.851Z,3.90
2023-04-02T02:11:27.004Z,4.10
2023-04-02T02:14:00.229Z,4.70
2023-04-02T02:16:31.837Z,4.10
2023-04-02T02:19:04.254Z,3.70
2023-04-02T02:21:42.507Z,4.40
2023-04-02T02:24:21.170Z,4.30
2023-04-02T02:26:58.015Z,3.90
2023-04-02T02:29:30.553Z,4.60
2023-04-02T02:32:03.805Z,4.10
2023-04-02T02:34:39.121Z,4.10
2023-04-02T02:37:18.746Z,4.60
2023-04-02T02:39:55.009Z,4.80
2023-04-02T02:42:31.686Z,4.70
2023-04-02T02:45:07.168Z,5.00
2023-04-02T02:47:40.632Z,5.00
2023-04-02T02:50:20.128Z,4.70
2023-04-02T02:52:55.163Z,5.50
2023-04-02T02:55:32.166Z,5.30
2023-04-02T02:58:27.602Z,5.40
2023-04-02T03:01:10.592Z,5.00
2023-04-02T03:03:41.747Z,5.10
2023-04-02T03:06:20.730Z,5.80
2023-04-02T03:11:39.763Z,6.30
2023-04-02T03:14:21.381Z,5.80
2023-04-02T03:16:58.736Z,6.00
2023-04-02T03:19:36.963Z,6.20
2023-04-02T03:22:15.094Z,7.00
2023-04-02T03:24:54.939Z,6.80
2023-04-02T03:27:33.104Z,6.50
2023-04-02T03:30:27.572Z,6.80
2023-04-02T03:33:03.306Z,6.60
2023-04-02T03:35:39.392Z,6.30
2023-04-02T03:38:17.465Z,7.00
2023-04-02T03:41:00.747Z,8.20
2023-04-02T03:43:37.753Z,7.30
2023-04-02T03:46:17.608Z,7.10
2023-04-02T03:48:52.453Z,6.70
2023-04-02T03:51:28.624Z,6.40
2023-04-02T03:53:59.384Z,6.40
2023-04-02T03:56:39.542Z,6.90
2023-04-02T03:59:21.844Z,8.30
2023-04-02T04:01:57.817Z,7.20
2023-04-02T04:04:32.112Z,6.70
2023-04-02T04:07:03.455Z,7.30
2023-04-02T04:09:37.352Z,9.10
2023-04-02T04:12:23.365Z,8.10
2023-04-02T04:15:01.131Z,7.30
2023-04-02T04:17:41.420Z,8.60
2023-04-02T04:20:22.123Z,8.20
2023-04-02T04:22:55.814Z,7.80
2023-04-02T04:25:33.837Z,7.80
2023-04-02T04:28:21.521Z,7.90
2023-04-02T04:31:00.640Z,8.00
2023-04-02T04:33:39.909Z,7.70
2023-04-02T04:36:29.008Z,7.40
2023-04-02T04:39:15.505Z,7.50
2023-04-02T04:41:51.180Z,7.10
2023-04-02T04:44:25.689Z,8.60
2023-04-02T04:47:04.624Z,8.00
2023-04-02T04:49:40.374Z,8.30
2023-04-02T04:52:16.418Z,8.80
2023-04-02T04:54:49.615Z,8.50
2023-04-02T04:57:30.908Z,8.60
2023-04-02T05:00:09.357Z,9.40
2023-04-02T05:02:48.416Z,9.00
2023-04-02T05:05:26.148Z,7.00
2023-04-02T05:08:02.422Z,7.90
2023-04-02T05:10:40.141Z,8.60
2023-04-02T05:13:17.774Z,7.60
2023-04-02T05:15:56.279Z,8.80
2023-04-02T05:18:33.417Z,9.10
2023-04-02T05:21:15.518Z,9.00
2023-04-02T05:23:52.221Z,8.40
2023-04-02T05:26:26.424Z,8.20
2023-04-02T05:29:05.072Z,8.60
2023-04-02T05:31:43.896Z,8.60
2023-04-02T05:34:25.128Z,8.30
2023-04-02T05:36:58.298Z,8.50
2023-04-02T05:39:29.902Z,8.50
2023-04-02T05:42:05.643Z,8.70
2023-04-02T05:44:57.209Z,7.80
2023-04-02T05:47:31.367Z,8.90
2023-04-02T05:50:22.921Z,8.70
2023-04-02T05:55:41.258Z,9.00
2023-04-02T05:58:34.497Z,8.50
2023-04-02T06:01:26.280Z,8.70
2023-04-02T06:04:07.445Z,9.10
2023-04-02T06:06:58.903Z,9.60
2023-04-02T06:09:39.907Z,9.00
2023-04-02T06:12:20.619Z,8.30
2023-04-02T06:14:56.213Z,8.30
2023-04-02T06:17:34.820Z,9.70
2023-04-02T06:20:07.610Z,9.20
2023-04-02T06:22:42.947Z,9.10
2023-04-02T06:25:21.275Z,8.00
2023-04-02T06:27:54.316Z,9.60
2023-04-02T06:30:33.477Z,8.60
2023-04-02T06:33:09.485Z,9.00
2023-04-02T06:35:46.722Z,9.00
2023-04-02T06:38:27.475Z,9.00
2023-04-02T06:41:01.010Z,8.30
2023-04-02T06:44:26.645Z,9.40
2023-04-02T06:47:24.956Z,7.70
2023-04-02T06:49:59.527Z,8.40
2023-04-02T06:52:35.255Z,7.60
2023-04-02T06:55:22.872Z,8.60
2023-04-02T06:57:53.443Z,7.90
2023-04-02T07:00:32.765Z,8.20
2023-04-02T07:03:07.278Z,7.00
2023-04-02T07:05:40.372Z,8.00
2023-04-02T07:08:12.388Z,8.40
2023-04-02T07:10:43.168Z,8.00
2023-04-02T07:13:17.834Z,8.80
2023-04-02T07:15:50.855Z,8.40
2023-04-02T07:18:28.912Z,9.00
2023-04-02T07:21:00.229Z,8.30
2023-04-02T07:23:31.855Z,8.00
2023-04-02T07:26:03.181Z,7.90
2023-04-02T07:31:02.813Z,9.30
2023-04-02T07:33:34.354Z,9.20
2023-04-02T07:36:05.229Z,9.60
2023-04-02T07:38:36.169Z,9.80
2023-04-02T07:41:09.568Z,9.20
2023-04-02T07:43:41.409Z,8.40
2023-04-02T07:46:15.117Z,9.70
2023-04-02T07:48:46.364Z,8.30
2023-04-02T07:51:21.164Z,8.80
2023-04-02T07:53:56.037Z,8.40
2023-04-02T07:56:28.723Z,8.00
2023-04-02T07:58:59.168Z,8.30
2023-04-02T08:01:35.130Z,9.00
2023-04-02T08:04:07.844Z,8.10
2023-04-02T08:06:38.477Z,7.60
2023-04-02T08:09:09.060Z,7.30
2023-04-02T08:11:40.218Z,6.80
2023-04-02T08:14:11.174Z,6.60
2023-04-02T08:16:50.680Z,7.40
2023-04-02T08:19:21.967Z,6.30
2023-04-02T08:24:22.982Z,6.10
2023-04-02T08:26:54.128Z,6.80
2023-04-02T08:29:25.000Z,6.20
2023-04-02T08:31:55.987Z,6.90
2023-04-02T08:34:26.903Z,6.10
2023-04-02T08:37:00.166Z,5.90
2023-04-02T08:39:33.244Z,5.70
2023-04-02T08:42:08.778Z,5.10
2023-04-02T08:44:49.825Z,5.30
2023-04-02T08:47:25.883Z,5.50
2023-04-02T08:50:00.873Z,5.60
2023-04-02T08:52:35.766Z,5.00
2023-04-02T08:55:23.736Z,5.70
2023-04-02T08:58:02.845Z,4.80
2023-04-02T09:00:40.296Z,4.80
2023-04-02T09:03:16.242Z,4.20
2023-04-02T09:05:48.909Z,4.30
2023-04-02T09:08:22.031Z,3.90
2023-04-02T09:10:56.259Z,4.80
2023-04-02T09:13:29.544Z,5.30
2023-04-02T09:16:04.853Z,5.10
2023-04-02T09:18:35.686Z,5.30
2023-04-02T09:21:20.870Z,5.00
2023-04-02T09:23:51.992Z,4.50
2023-04-02T09:26:27.221Z,4.70
2023-04-02T09:29:03.955Z,5.00
2023-04-02T09:31:39.997Z,6.00
2023-04-02T09:34:31.260Z,5.10
2023-04-02T09:37:10.408Z,5.90
2023-04-02T09:39:41.100Z,5.30
2023-04-02T09:42:34.095Z,5.00
2023-04-02T09:45:21.196Z,6.20
2023-04-02T09:47:53.336Z,5.90
2023-04-02T09:50:29.601Z,5.90
2023-04-02T09:53:00.917Z,5.60
2023-04-02T09:58:15.387Z,6.20
2023-04-02T10:00:54.288Z,6.30
2023-04-02T10:03:27.851Z,6.20
2023-04-02T10:06:10.455Z,6.50
2023-04-02T10:08:42.858Z,6.70
2023-04-02T10:11:17.614Z,6.60
2023-04-02T10:13:56.829Z,6.50
2023-04-02T10:16:33.152Z,7.10
2023-04-02T10:19:24.488Z,6.20
2023-04-02T10:21:56.820Z,5.80
2023-04-02T10:24:30.034Z,6.20
2023-04-02T10:27:17.738Z,5.60
2023-04-02T10:30:09.566Z,6.40
2023-04-02T10:32:45.688Z,6.20
2023-04-02T10:35:25.535Z,5.90
2023-04-02T10:38:07.272Z,5.50
2023-04-02T10:40:41.014Z,5.20
2023-04-02T10:43:36.442Z,5.20
2023-04-02T10:46:13.255Z,4.80
2023-04-02T10:48:53.703Z,4.90
2023-04-02T10:51:40.316Z,4.10
2023-04-02T10:54:28.019Z,2.10
2023-04-02T10:57:04.144Z,2.00
2023-04-02T10:59:38.665Z,2.00
2023-04-02T11:02:32.004Z,2.20
2023-04-02T11:05:08.806Z,1.50
2023-04-02T11:07:54.238Z,1.70
2023-04-02T11:10:27.633Z,1.60
2023-04-02T11:13:02.592Z,1.80
2023-04-02T11:15:33.859Z,1.50
2023-04-02T11:18:04.924Z,1.90
2023-04-02T11:21:00.577Z,1.30
2023-04-02T11:23:35.121Z,1.40
2023-04-02T11:26:37.512Z,1.30
2023-04-02T11:29:19.366Z,1.10
2023-04-02T11:31:51.690Z,1.20
2023-04-02T11:35:05.896Z,1.30
2023-04-02T11:37:39.711Z,1.20
2023-04-02T11:40:53.117Z,1.40
2023-04-02T11:44:01.127Z,1.40
2023-04-02T11:46:47.355Z,1.60
2023-04-02T11:49:37.118Z,1.30
2023-04-02T11:52:23.116Z,1.50
2023-04-02T11:55:22.383Z,1.50
2023-04-02T11:58:22.904Z,1.50
2023-04-02T12:01:23.153Z,1.40
2023-04-02T12:04:32.408Z,1.50
2023-04-02T12:07:34.689Z,1.40
2023-04-02T12:10:16.905Z,1.50
2023-04-02T12:12:47.631Z,1.70
2023-04-02T12:15:44.133Z,2.20
2023-04-02T12:18:22.616Z,1.70
2023-04-02T12:20:55.116Z,1.70
2023-04-02T12:23:29.273Z,1.60
2023-04-02T12:26:01.734Z,1.90
2023-04-02T12:28:33.817Z,1.70
2023-04-02T12:31:17.770Z,1.60
2023-04-02T12:33:52.613Z,1.80
2023-04-02T12:36:24.246Z,1.50
2023-04-02T12:38:57.570Z,1.80
2023-04-02T12:41:30.992Z,1.60
2023-04-02T12:44:02.799Z,1.30
2023-04-02T12:46:35.970Z,1.40
2023-04-02T12:49:10.201Z,1.60
2023-04-02T12:51:41.865Z,2.00
2023-04-02T12:54:17.500Z,1.80
2023-04-02T12:56:48.452Z,2.50
2023-04-02T12:59:30.777Z,2.20
2023-04-02T13:02:04.082Z,1.90
2023-04-02T13:04:47.155Z,1.70
2023-04-02T13:07:20.437Z,1.70
2023-04-02T13:09:53.658Z,1.50
2023-04-02T13:12:33.271Z,1.30
2023-04-02T13:15:06.468Z,1.50
2023-04-02T13:17:43.182Z,1.60
2023-04-02T13:20:36.034Z,1.40
2023-04-02T13:23:26.605Z,1.50
2023-04-02T13:25:58.105Z,2.00
2023-04-02T13:28:29.078Z,1.80
2023-04-02T13:31:00.006Z,2.30
2023-04-02T13:33:30.631Z,1.80
2023-04-02T13:36:01.564Z,1.60
2023-04-02T13:38:32.138Z,2.20
2023-04-02T13:41:02.659Z,2.40
2023-04-02T13:43:33.289Z,1.80
2023-04-02T13:46:07.159Z,1.70
2023-04-02T13:48:38.001Z,1.40
2023-04-02T13:51:10.886Z,2.50
2023-04-02T13:53:41.538Z,2.10
2023-04-02T13:56:12.299Z,1.70
2023-04-02T13:58:42.703Z,1.80
2023-04-02T14:01:14.451Z,1.80
2023-04-02T14:03:45.405Z,1.90
2023-04-02T14:06:28.916Z,1.70
2023-04-02T14:09:06.620Z,3.20
2023-04-02T14:11:52.211Z,1.80
2023-04-02T14:14:43.088Z,1.90
2023-04-02T14:17:25.543Z,1.90
2023-04-02T14:20:18.121Z,1.70
2023-04-02T14:23:04.640Z,1.50
2023-04-02T14:25:42.655Z,1.50
2023-04-02T14:28:23.653Z,1.60
2023-04-02T14:31:02.490Z,2.10
2023-04-02T14:33:44.150Z,1.70
2023-04-02T14:36:21.989Z,1.30
2023-04-02T14:39:00.698Z,1.30
2023-04-02T14:41:41.000Z,1.50
2023-04-02T14:44:13.865Z,1.40
2023-04-02T14:46:44.496Z,1.60
2023-04-02T14:49:26.432Z,1.40
2023-04-02T14:52:04.390Z,1.50
2023-04-02T14:54:38.649Z,1.70
2023-04-02T14:57:17.027Z,1.40
2023-04-02T14:59:57.717Z,1.60
2023-04-02T15:02:36.495Z,1.70
2023-04-02T15:05:15.434Z,2.10
2023-04-02T15:07:50.058Z,2.00
2023-04-02T15:10:27.371Z,2.00
2023-04-02T15:12:59.045Z,2.10
2023-04-02T15:15:42.545Z,2.40
2023-04-02T15:18:16.372Z,2.10
2023-04-02T15:20:55.864Z,2.50
2023-04-02T15:23:35.465Z,2.70
2023-04-02T15:26:13.779Z,2.30
2023-04-02T15:28:48.300Z,2.50
2023-04-02T15:31:22.341Z,2.40
2023-04-02T15:33:59.757Z,2.10
2023-04-02T15:36:59.928Z,2.20
2023-04-02T15:39:43.018Z,2.20
2023-04-02T15:42:23.659Z,2.30
2023-04-02T15:45:18.954Z,2.30
2023-04-02T15:48:15.185Z,1.90
2023-04-02T15:50:55.453Z,2.20
2023-04-02T15:53:39.105Z,2.80
2023-04-02T15:56:23.459Z,2.40
2023-04-02T15:59:19.380Z,2.80
2023-04-02T16:02:00.115Z,3.30
2023-04-02T16:04:47.500Z,3.00
2023-04-02T16:07:44.928Z,2.90
2023-04-02T16:10:38.049Z,3.00
2023-04-02T16:13:20.957Z,3.80
2023-04-02T16:15:59.572Z,3.50
2023-04-02T16:18:42.964Z,3.30
2023-04-02T16:21:17.440Z,3.40
2023-04-02T16:23:48.406Z,3.10
2023-04-02T16:26:32.244Z,3.20
2023-04-02T16:29:16.381Z,3.10
2023-04-02T16:31:54.713Z,3.10
2023-04-02T16:34:36.649Z,3.80
2023-04-02T16:37:18.108Z,3.30
2023-04-02T16:42:31.228Z,3.60
2023-04-02T16:45:16.415Z,4.00
2023-04-02T16:47:59.608Z,4.20
2023-04-02T16:50:39.740Z,3.50
2023-04-02T16:53:21.584Z,3.30
2023-04-02T16:56:05.015Z,3.90
2023-04-02T16:58:48.395Z,3.70
2023-04-02T17:01:28.713Z,3.50
2023-04-02T17:04:21.814Z,3.10
2023-04-02T17:07:03.164Z,3.90
2023-04-02T17:09:44.014Z,4.00
2023-04-02T17:12:21.373Z,5.40
2023-04-02T17:14:57.558Z,4.50
2023-04-02T17:17:28.214Z,4.00
2023-04-02T17:20:01.865Z,4.80
2023-04-02T17:22:34.480Z,3.70
2023-04-02T17:25:08.950Z,4.80
2023-04-02T17:27:41.589Z,4.20
2023-04-02T17:30:20.061Z,4.50
2023-04-02T17:32:50.751Z,4.30
2023-04-02T17:35:28.889Z,4.50
2023-04-02T17:38:09.492Z,4.90
2023-04-02T17:40:52.240Z,5.00
2023-04-02T17:43:37.863Z,5.00
2023-04-02T17:46:20.725Z,4.60
2023-04-02T17:48:59.464Z,4.70
2023-04-02T17:51:40.852Z,4.10
2023-04-02T17:54:30.781Z,4.20
2023-04-02T17:57:17.731Z,4.60
2023-04-02T17:59:56.927Z,4.60
2023-04-02T18:02:47.436Z,5.00
2023-04-02T18:05:28.734Z,4.40
2023-04-02T18:08:12.539Z,5.30
2023-04-02T18:10:54.722Z,5.20
2023-04-02T18:13:34.933Z,4.80
2023-04-02T18:16:25.691Z,5.60
2023-04-02T18:19:16.174Z,5.60
2023-04-02T18:21:56.805Z,6.20
2023-04-02T18:25:00.421Z,5.70
2023-04-02T18:28:00.442Z,5.80
2023-04-02T18:30:38.575Z,5.90
2023-04-02T18:33:29.865Z,6.40
2023-04-02T18:36:09.792Z,5.80
2023-04-02T18:38:46.027Z,5.90
2023-04-02T18:41:36.000Z,5.50
2023-04-02T18:44:23.371Z,5.30
2023-04-02T18:46:56.440Z,4.70
2023-04-02T18:49:37.450Z,4.90
2023-04-02T18:52:14.869Z,3.80
2023-04-02T18:54:47.630Z,5.70
2023-04-02T18:57:23.408Z,5.40
2023-04-02T19:00:00.441Z,4.90
2023-04-02T19:02:49.101Z,4.60
2023-04-02T19:05:27.313Z,4.10
2023-04-02T19:08:15.475Z,4.50
2023-04-02T19:10:47.952Z,5.00
2023-04-02T19:13:20.767Z,4.80
2023-04-02T19:16:07.436Z,4.60
2023-04-02T19:18:51.857Z,4.50
2023-04-02T19:21:34.312Z,4.60
2023-04-02T19:24:22.099Z,5.50
2023-04-02T19:26:59.721Z,5.00
2023-04-02T19:29:41.685Z,4.80
2023-04-02T19:32:21.903Z,4.20
2023-04-02T19:34:59.652Z,3.80
2023-04-02T19:37:37.742Z,3.70
2023-04-02T19:40:20.629Z,4.50
2023-04-02T19:42:52.887Z,4.50
2023-04-02T19:45:38.862Z,4.90
2023-04-02T19:48:17.349Z,5.00
2023-04-02T19:50:49.219Z,4.20
2023-04-02T19:53:20.236Z,5.10
2023-04-02T19:55:51.743Z,4.60
2023-04-02T19:58:27.783Z,4.60
2023-04-02T20:00:59.084Z,4.30
2023-04-02T20:05:59.879Z,4.60
2023-04-02T20:08:31.333Z,4.40
2023-04-02T20:11:02.228Z,4.30
2023-04-02T20:13:32.842Z,4.90
2023-04-02T20:16:04.756Z,4.70
2023-04-02T20:18:37.168Z,4.70
2023-04-02T20:21:09.448Z,4.50
2023-04-02T20:23:39.983Z,4.90
2023-04-02T20:26:11.694Z,4.90
2023-04-02T20:28:42.271Z,5.10
2023-04-02T20:31:15.060Z,4.90
2023-04-02T20:33:45.854Z,4.30
2023-04-02T20:36:18.459Z,4.60
2023-04-02T20:38:51.018Z,4.50
2023-04-02T20:41:23.178Z,4.40
2023-04-02T20:43:53.887Z,4.40
2023-04-02T20:46:25.326Z,3.60
2023-04-02T20:48:55.849Z,4.10
2023-04-02T20:51:26.510Z,4.40
2023-04-02T20:53:57.098Z,4.00
2023-04-02T20:56:27.959Z,4.20
2023-04-02T20:58:58.597Z,4.50
2023-04-02T21:01:30.999Z,4.00
2023-04-02T21:04:03.184Z,4.40
2023-04-02T21:06:36.374Z,3.90
2023-04-02T21:09:08.831Z,4.30
2023-04-02T21:11:39.507Z,4.00
2023-04-02T21:14:09.964Z,4.10
2023-04-02T21:16:40.862Z,3.90
2023-04-02T21:19:12.221Z,3.70
2023-04-02T21:24:12.794Z,3.80
2023-04-02T21:26:44.119Z,4.00
2023-04-02T21:29:15.628Z,3.20
2023-04-02T21:31:46.548Z,3.50
2023-04-02T21:34:18.058Z,3.10
2023-04-02T21:36:50.578Z,2.90
2023-04-02T21:39:23.171Z,3.40
2023-04-02T21:41:54.891Z,3.20
2023-04-02T21:44:26.039Z,3.40
2023-04-02T21:46:56.522Z,2.70
2023-04-02T21:49:27.286Z,3.30
2023-04-02T21:51:57.796Z,3.30
2023-04-02T21:54:28.280Z,3.70
2023-04-02T21:56:59.666Z,3.40
2023-04-02T22:01:59.029Z,3.00
2023-04-02T22:04:30.675Z,3.30
2023-04-02T22:07:03.430Z,3.40
2023-04-02T22:09:33.863Z,2.90
2023-04-02T22:12:06.465Z,3.90
2023-04-02T22:14:37.164Z,3.10
2023-04-02T22:17:07.713Z,3.00
2023-04-02T22:19:38.285Z,3.50
2023-04-02T22:22:08.677Z,3.10
2023-04-02T22:24:39.193Z,3.20
2023-04-02T22:27:09.762Z,3.10
2023-04-02T22:29:41.318Z,3.10
2023-04-02T22:32:11.847Z,2.70
2023-04-02T22:34:45.560Z,3.20
2023-04-02T22:37:16.104Z,2.90
2023-04-02T22:39:46.440Z,2.90
2023-04-02T22:42:16.780Z,2.80
2023-04-02T22:44:47.255Z,2.60
2023-04-02T22:47:17.615Z,2.80
2023-04-02T22:49:48.341Z,2.70
2023-04-02T22:52:18.736Z,3.00
2023-04-02T22:54:49.404Z,2.70
2023-04-02T22:57:20.048Z,2.60
2023-04-02T22:59:50.517Z,2.60
2023-04-02T23:02:20.995Z,3.40
2023-04-02T23:04:51.510Z,2.90
2023-04-02T23:07:21.838Z,2.70
2023-04-02T23:09:52.257Z,3.10
2023-04-02T23:12:22.611Z,3.00
2023-04-02T23:14:54.012Z,2.80
2023-04-02T23:19:53.255Z,3.00
2023-04-02T23:22:23.562Z,3.30
2023-04-02T23:24:54.666Z,2.90
2023-04-02T23:27:25.493Z,3.20
2023-04-02T23:29:57.075Z,3.00
2023-04-02T23:32:27.416Z,2.80
2023-04-02T23:34:57.896Z,3.20
2023-04-02T23:37:28.335Z,3.10
2023-04-02T23:39:58.905Z,3.20
2023-04-02T23:42:29.272Z,3.30
2023-04-02T23:44:59.653Z,3.10
2023-04-02T23:47:29.938Z,3.30
2023-04-02T23:50:00.362Z,3.30
2023-04-02T23:52:30.777Z,3.30
2023-04-02T23:55:01.419Z,3.40
2023-04-02T23:57:32.051Z,3.10
